createdAt,value
2018-04-29T00:02:44.425Z,5.60
2018-04-29T00:05:46.436Z,6.57
2018-04-29T00:08:49.212Z,6.77
2018-04-29T00:11:51.228Z,6.70
2018-04-29T00:14:53.238Z,5.90
2018-04-29T00:17:55.251Z,5.90
2018-04-29T00:20:57.267Z,6.40
2018-04-29T00:23:59.277Z,5.37
2018-04-29T00:27:02.065Z,6.20
2018-04-29T00:30:04.069Z,5.80
2018-04-29T00:33:06.117Z,7.67
2018-04-29T00:36:08.114Z,6.00
2018-04-29T00:39:11.192Z,5.90
2018-04-29T00:42:13.226Z,6.50
2018-04-29T00:45:15.236Z,6.90
2018-04-29T00:48:17.256Z,5.93
2018-04-29T00:51:30.668Z,6.40
2018-04-29T00:54:32.696Z,7.13
2018-04-29T00:57:34.728Z,6.67
2018-04-29T01:00:37.480Z,6.20
2018-04-29T01:03:39.493Z,5.50
2018-04-29T01:06:42.338Z,5.80
2018-04-29T01:09:44.354Z,6.53
2018-04-29T01:12:46.368Z,6.80
2018-04-29T01:15:48.391Z,6.57
2018-04-29T01:18:50.401Z,5.50
2018-04-29T01:21:52.508Z,7.30
2018-04-29T01:24:54.527Z,5.70
2018-04-29T01:27:56.624Z,6.97
2018-04-29T01:30:58.634Z,7.63
2018-04-29T01:34:00.650Z,7.33
2018-04-29T01:37:02.648Z,7.03
2018-04-29T01:40:04.681Z,7.37
2018-04-29T01:43:06.698Z,7.00
2018-04-29T01:46:08.719Z,7.43
2018-04-29T01:49:10.710Z,6.20
2018-04-29T01:52:12.721Z,6.67
2018-04-29T01:55:14.715Z,7.20
2018-04-29T01:58:16.728Z,6.37
2018-04-29T02:01:19.504Z,5.87
2018-04-29T02:04:23.031Z,6.83
2018-04-29T02:07:25.048Z,6.83
2018-04-29T02:10:27.057Z,6.03
2018-04-29T02:13:29.845Z,7.13
2018-04-29T02:16:31.865Z,6.70
2018-04-29T02:19:33.906Z,6.63
2018-04-29T02:22:35.907Z,6.20
2018-04-29T02:25:37.915Z,9.03
2018-04-29T02:28:39.916Z,8.50
2018-04-29T02:31:41.941Z,6.17
2018-04-29T02:34:43.962Z,5.90
2018-04-29T02:37:45.976Z,7.90
2018-04-29T02:40:48.238Z,6.60
2018-04-29T02:43:50.266Z,6.87
2018-04-29T02:46:52.314Z,7.07
2018-04-29T02:49:55.070Z,6.63
2018-04-29T02:52:57.078Z,7.07
2018-04-29T02:55:59.074Z,6.50
2018-04-29T02:59:01.161Z,6.37
2018-04-29T03:02:03.164Z,6.77
2018-04-29T03:05:05.182Z,6.90
2018-04-29T03:08:07.175Z,8.23
2018-04-29T03:11:09.214Z,6.40
2018-04-29T03:14:11.215Z,6.73
2018-04-29T03:17:14.742Z,6.20
2018-04-29T03:20:16.762Z,7.17
2018-04-29T03:23:18.754Z,6.80
2018-04-29T03:26:20.770Z,6.57
2018-04-29T03:29:22.777Z,7.67
2018-04-29T03:32:24.807Z,6.20
2018-04-29T03:35:26.820Z,6.07
2018-04-29T03:38:29.637Z,7.37
2018-04-29T03:41:31.634Z,7.30
2018-04-29T03:44:33.656Z,7.23
2018-04-29T03:47:35.679Z,6.23
2018-04-29T03:50:37.687Z,7.00
2018-04-29T03:53:39.703Z,7.53
2018-04-29T03:56:41.729Z,7.57
2018-04-29T03:59:56.214Z,5.73
2018-04-29T04:06:33.591Z,5.73
2018-04-29T04:09:35.623Z,6.67
2018-04-29T04:12:37.631Z,5.80
2018-04-29T04:15:39.649Z,7.53
2018-04-29T04:18:41.663Z,6.80
2018-04-29T04:21:43.718Z,6.77
2018-04-29T04:24:46.306Z,7.00
2018-04-29T04:27:48.442Z,8.13
2018-04-29T04:30:50.445Z,6.80
2018-04-29T04:33:52.448Z,6.20
2018-04-29T04:36:54.481Z,6.60
2018-04-29T04:39:56.475Z,7.00
2018-04-29T04:42:58.588Z,7.17
2018-04-29T04:46:00.598Z,7.07
2018-04-29T04:49:02.589Z,6.50
2018-04-29T04:52:05.394Z,7.00
2018-04-29T04:55:07.399Z,6.13
2018-04-29T04:58:09.557Z,6.97
2018-04-29T05:01:11.566Z,6.70
2018-04-29T05:04:13.588Z,6.50
2018-04-29T05:07:15.591Z,6.23
2018-04-29T05:10:17.623Z,7.00
2018-04-29T05:13:19.642Z,7.20
2018-04-29T05:16:23.434Z,5.97
2018-04-29T05:19:25.478Z,6.50
2018-04-29T05:22:27.480Z,5.90
2018-04-29T05:25:29.548Z,6.90
2018-04-29T05:28:31.571Z,6.60
2018-04-29T05:31:33.578Z,5.80
2018-04-29T05:34:35.597Z,5.93
2018-04-29T05:37:37.583Z,6.60
2018-04-29T05:40:39.593Z,6.33
2018-04-29T05:43:42.394Z,6.77
2018-04-29T05:46:44.446Z,7.07
2018-04-29T05:49:46.481Z,7.30
2018-04-29T05:52:48.515Z,6.93
2018-04-29T05:55:51.274Z,7.30
2018-04-29T05:58:53.284Z,7.67
2018-04-29T06:01:56.046Z,7.10
2018-04-29T06:04:58.073Z,7.90
2018-04-29T06:08:00.063Z,6.90
2018-04-29T06:11:02.083Z,8.20
2018-04-29T06:14:04.158Z,8.73
2018-04-29T06:17:06.141Z,7.40
2018-04-29T06:20:08.148Z,6.77
2018-04-29T06:23:10.382Z,7.77
2018-04-29T06:26:12.512Z,7.30
2018-04-29T06:29:14.438Z,8.13
2018-04-29T06:32:16.451Z,9.50
2018-04-29T06:35:19.211Z,8.00
2018-04-29T06:38:21.221Z,7.20
2018-04-29T06:41:23.218Z,8.03
2018-04-29T06:44:25.235Z,8.00
2018-04-29T06:47:27.266Z,7.37
2018-04-29T06:50:29.256Z,7.83
2018-04-29T06:53:31.470Z,8.00
2018-04-29T06:56:33.471Z,6.70
2018-04-29T06:59:35.507Z,7.13
2018-04-29T07:02:37.526Z,6.97
2018-04-29T07:05:39.606Z,7.30
2018-04-29T07:08:41.641Z,7.57
2018-04-29T07:11:43.640Z,7.03
2018-04-29T07:14:45.662Z,6.82
2018-04-29T07:17:47.654Z,8.02
2018-04-29T07:20:49.682Z,7.43
2018-04-29T07:23:51.722Z,7.28
2018-04-29T07:26:53.743Z,8.45
2018-04-29T07:29:55.788Z,8.27
2018-04-29T07:32:57.830Z,7.20
2018-04-29T07:36:01.351Z,8.07
2018-04-29T07:39:04.979Z,7.80
2018-04-29T07:42:06.974Z,7.68
2018-04-29T07:45:09.114Z,8.25
2018-04-29T07:48:11.125Z,7.55
2018-04-29T07:51:13.151Z,7.12
2018-04-29T07:54:15.993Z,7.45
2018-04-29T07:57:18.063Z,7.18
2018-04-29T08:00:20.060Z,7.62
2018-04-29T08:03:22.064Z,7.15
2018-04-29T08:06:24.765Z,6.82
2018-04-29T08:09:26.818Z,6.05
2018-04-29T08:12:28.838Z,6.85
2018-04-29T08:15:31.722Z,6.72
2018-04-29T08:18:33.655Z,7.30
2018-04-29T08:21:35.687Z,6.22
2018-04-29T08:24:37.697Z,7.30
2018-04-29T08:27:39.726Z,6.30
2018-04-29T08:30:41.723Z,5.90
2018-04-29T08:33:43.752Z,6.00
2018-04-29T08:36:45.763Z,5.62
2018-04-29T08:39:48.132Z,6.12
2018-04-29T08:42:50.155Z,6.70
2018-04-29T08:45:52.981Z,6.90
2018-04-29T08:48:55.000Z,6.05
2018-04-29T08:51:56.992Z,7.60
2018-04-29T08:54:59.004Z,6.22
2018-04-29T08:58:01.028Z,7.65
2018-04-29T09:01:03.042Z,6.03
2018-04-29T09:04:05.067Z,6.97
2018-04-29T09:07:07.131Z,6.15
2018-04-29T09:10:09.997Z,6.07
2018-04-29T09:13:11.960Z,6.57
2018-04-29T09:16:13.973Z,6.37
2018-04-29T09:19:16.006Z,6.67
2018-04-29T09:22:18.756Z,6.50
2018-04-29T09:25:20.827Z,6.20
2018-04-29T09:28:22.821Z,7.50
2018-04-29T09:31:25.637Z,7.10
2018-04-29T09:34:27.632Z,7.87
2018-04-29T09:37:29.712Z,6.78
2018-04-29T09:40:31.725Z,6.55
2018-04-29T09:43:34.588Z,6.72
2018-04-29T09:46:36.558Z,6.60
2018-04-29T09:49:38.552Z,7.45
2018-04-29T09:52:41.347Z,7.10
2018-04-29T09:55:43.394Z,6.35
2018-04-29T09:58:45.399Z,6.97
2018-04-29T10:01:47.434Z,7.30
2018-04-29T10:04:50.224Z,7.15
2018-04-29T10:07:52.234Z,6.50
2018-04-29T10:10:54.306Z,6.43
2018-04-29T10:13:56.339Z,6.95
2018-04-29T10:16:59.116Z,6.45
2018-04-29T10:20:01.159Z,6.85
2018-04-29T10:23:03.375Z,6.97
2018-04-29T10:26:05.646Z,7.62
2018-04-29T10:29:07.643Z,7.55
2018-04-29T10:32:09.663Z,7.87
2018-04-29T10:35:11.687Z,7.28
2018-04-29T10:38:14.122Z,6.62
2018-04-29T10:41:16.906Z,7.60
2018-04-29T10:44:18.936Z,7.45
2018-04-29T10:47:20.975Z,7.03
2018-04-29T10:50:22.972Z,7.53
2018-04-29T10:53:25.011Z,7.05
2018-04-29T10:56:27.033Z,6.90
2018-04-29T10:59:29.042Z,6.47
2018-04-29T11:02:31.071Z,7.05
2018-04-29T11:05:33.053Z,6.53
2018-04-29T11:08:35.171Z,6.35
2018-04-29T11:11:37.222Z,7.28
2018-04-29T11:14:39.252Z,6.87
2018-04-29T11:17:41.258Z,6.78
2018-04-29T11:20:43.253Z,6.45
2018-04-29T11:23:45.265Z,7.10
2018-04-29T11:26:47.273Z,6.75
2018-04-29T11:29:49.302Z,7.40
2018-04-29T11:32:52.204Z,6.28
2018-04-29T11:35:54.282Z,6.53
2018-04-29T11:38:56.338Z,6.25
2018-04-29T11:41:58.351Z,7.87
2018-04-29T11:45:00.442Z,6.75
2018-04-29T11:48:02.454Z,5.93
2018-04-29T11:51:04.458Z,5.47
2018-04-29T11:54:06.490Z,6.27
2018-04-29T11:57:08.507Z,6.73
2018-04-29T12:00:11.438Z,5.87
2018-04-29T12:03:13.451Z,6.60
2018-04-29T12:06:15.471Z,6.35
2018-04-29T12:09:17.471Z,5.93
2018-04-29T12:12:19.487Z,6.25
2018-04-29T12:15:21.472Z,5.90
2018-04-29T12:18:23.485Z,7.28
2018-04-29T12:21:25.523Z,5.97
2018-04-29T12:24:27.632Z,6.47
2018-04-29T12:27:29.686Z,5.70
2018-04-29T12:30:31.717Z,6.50
2018-04-29T12:33:33.797Z,6.10
2018-04-29T12:36:35.760Z,5.93
2018-04-29T12:39:37.838Z,6.68
2018-04-29T12:42:39.866Z,6.03
2018-04-29T12:45:42.165Z,6.57
2018-04-29T12:48:44.197Z,6.53
2018-04-29T12:51:46.221Z,7.05
2018-04-29T12:54:48.222Z,6.45
2018-04-29T12:57:50.666Z,7.28
2018-04-29T13:00:52.655Z,6.40
2018-04-29T18:47:33.848Z,9.97
2018-04-29T18:50:35.920Z,11.60
2018-04-29T18:53:37.915Z,12.10
2018-04-29T18:56:40.025Z,14.23
2018-04-29T18:59:42.016Z,13.30
2018-04-29T19:02:44.090Z,12.20
2018-04-29T19:05:46.138Z,11.57
2018-04-29T19:08:48.138Z,11.07
2018-04-29T19:11:50.238Z,12.37
2018-04-29T19:14:52.338Z,15.50
2018-04-29T19:17:54.563Z,13.83
2018-04-29T19:20:56.891Z,11.23
2018-04-29T19:23:59.274Z,11.60
2018-04-29T19:27:01.250Z,9.33
2018-04-29T19:30:03.350Z,8.60
2018-04-29T19:33:05.338Z,9.00
2018-04-29T19:36:07.350Z,9.77
2018-04-29T19:39:09.385Z,9.60
2018-04-29T19:42:12.406Z,10.60
2018-04-29T19:45:14.421Z,8.90
2018-04-29T19:48:18.188Z,8.37
2018-04-29T19:51:20.276Z,7.60
2018-04-29T19:54:22.414Z,9.60
2018-04-29T19:57:24.494Z,10.27
2018-04-29T20:00:27.236Z,10.80
2018-04-29T20:03:29.296Z,11.10
2018-04-29T20:06:31.416Z,11.23
2018-04-29T20:09:33.428Z,8.60
2018-04-29T20:12:36.207Z,10.70
2018-04-29T20:15:38.649Z,10.27
2018-04-29T20:18:40.665Z,9.17
2018-04-29T20:21:43.402Z,8.20
2018-04-29T20:24:45.434Z,9.27
2018-04-29T20:27:47.486Z,8.23
2018-04-29T20:30:49.612Z,8.20
2018-04-29T20:33:51.609Z,8.13
2018-04-29T20:36:54.271Z,8.17
2018-04-29T20:39:56.448Z,7.73
2018-04-29T20:42:58.469Z,9.03
2018-04-29T20:46:00.459Z,6.87
2018-04-29T20:49:03.268Z,8.30
2018-04-29T20:52:05.257Z,6.83
2018-04-29T20:55:07.277Z,7.73
2018-04-29T20:58:09.332Z,7.63
2018-04-29T21:01:13.032Z,7.20
2018-04-29T21:04:15.054Z,8.80
2018-04-29T21:07:17.081Z,8.93
2018-04-29T21:10:19.176Z,7.43
2018-04-29T21:13:21.453Z,7.10
2018-04-29T21:16:23.520Z,6.77
2018-04-29T21:19:25.536Z,8.47
2018-04-29T21:22:27.611Z,9.07
2018-04-29T21:25:29.585Z,7.33
2018-04-29T21:28:31.631Z,7.40
2018-04-29T21:31:33.646Z,8.17
2018-04-29T21:34:35.675Z,7.73
2018-04-29T21:37:37.677Z,7.10
2018-04-29T21:40:40.602Z,8.87
2018-04-29T21:43:42.592Z,7.80
2018-04-29T21:46:44.618Z,6.90
2018-04-29T21:49:46.775Z,7.83
2018-04-29T21:52:49.566Z,7.37
2018-04-29T21:55:51.578Z,6.07
2018-04-29T21:58:53.586Z,7.80
2018-04-29T22:01:55.577Z,7.00
2018-04-29T22:04:57.589Z,6.87
2018-04-29T22:07:59.575Z,8.13
2018-04-29T22:11:02.390Z,6.90
2018-04-29T22:14:04.378Z,8.67
2018-04-29T22:17:06.398Z,8.97
2018-04-29T22:20:08.596Z,7.70
2018-04-29T22:23:10.851Z,6.57
2018-04-29T22:26:12.964Z,7.93
2018-04-29T22:29:14.951Z,6.80
2018-04-29T22:32:17.035Z,7.00
2018-04-29T22:35:19.033Z,7.70
2018-04-29T22:38:21.052Z,7.57
2018-04-29T22:41:23.059Z,7.23
2018-04-29T22:44:25.075Z,7.83
2018-04-29T22:47:27.076Z,8.50
2018-04-29T22:50:29.095Z,8.60
2018-04-29T22:53:31.108Z,8.40
2018-04-29T22:56:33.132Z,8.07
2018-04-29T22:59:35.164Z,7.87
2018-04-29T23:02:37.161Z,8.73
2018-04-29T23:05:39.181Z,7.83
2018-04-29T23:08:41.181Z,8.30
2018-04-29T23:11:43.955Z,7.50
2018-04-29T23:14:46.048Z,7.40
2018-04-29T23:17:48.243Z,8.17
2018-04-29T23:20:50.418Z,8.10
2018-04-29T23:23:52.429Z,6.90
2018-04-29T23:26:54.426Z,7.70
2018-04-29T23:29:57.193Z,7.70
2018-04-29T23:32:59.199Z,8.47
2018-04-29T23:36:01.958Z,6.77
2018-04-29T23:39:04.125Z,7.00
2018-04-29T23:42:06.250Z,8.93
2018-04-29T23:45:08.299Z,8.27
2018-04-29T23:48:10.292Z,7.63
2018-04-29T23:51:12.316Z,9.80
2018-04-29T23:54:14.488Z,8.77
2018-04-29T23:57:17.289Z,8.50
